sensor_id;sensor_type;location;lat;lon;timestamp;pressure;altitude;pressure_sealevel;temperature;humidity
77626;BME280;66794;43.764;10.436;2023-04-25T00:01:05;101125.19;;;16.04;100.00
77626;BME280;66794;43.764;10.436;2023-04-25T00:03:51;101131.31;;;16.13;100.00
77626;BME280;66794;43.764;10.436;2023-04-25T00:06:36;101121.00;;;16.08;100.00
77626;BME280;66794;43.764;10.436;2023-04-25T00:09:22;101122.38;;;15.91;100.00
77626;BME280;66794;43.764;10.436;2023-04-25T00:12:08;101114.09;;;16.12;100.00
77626;BME280;66794;43.764;10.436;2023-04-25T00:14:54;101114.94;;;16.19;100.00
77626;BME280;66794;43.764;10.436;2023-04-25T00:17:42;101108.00;;;16.17;100.00
77626;BME280;66794;43.764;10.436;2023-04-25T00:20:27;101101.91;;;16.15;100.00
77626;BME280;66794;43.764;10.436;2023-04-25T00:23:13;101100.41;;;16.12;100.00
77626;BME280;66794;43.764;10.436;2023-04-25T00:26:02;101095.59;;;16.14;100.00
77626;BME280;66794;43.764;10.436;2023-04-25T00:28:48;101088.88;;;16.17;100.00
77626;BME280;66794;43.764;10.436;2023-04-25T00:31:34;101090.53;;;16.11;100.00
77626;BME280;66794;43.764;10.436;2023-04-25T00:34:19;101085.91;;;16.05;100.00
77626;BME280;66794;43.764;10.436;2023-04-25T00:37:05;101073.91;;;16.06;100.00
77626;BME280;66794;43.764;10.436;2023-04-25T00:39:51;101067.00;;;16.10;100.00
77626;BME280;66794;43.764;10.436;2023-04-25T00:42:38;101069.50;;;16.05;100.00
77626;BME280;66794;43.764;10.436;2023-04-25T00:45:27;101069.44;;;15.92;100.00
77626;BME280;66794;43.764;10.436;2023-04-25T00:48:13;101073.19;;;15.77;100.00
77626;BME280;66794;43.764;10.436;2023-04-25T00:50:59;101075.22;;;15.69;100.00
77626;BME280;66794;43.764;10.436;2023-04-25T00:53:45;101073.53;;;15.68;100.00
77626;BME280;66794;43.764;10.436;2023-04-25T00:56:31;101070.22;;;15.72;100.00
77626;BME280;66794;43.764;10.436;2023-04-25T00:59:17;101073.47;;;15.96;100.00
77626;BME280;66794;43.764;10.436;2023-04-25T01:02:04;101057.09;;;16.09;99.78
77626;BME280;66794;43.764;10.436;2023-04-25T01:04:50;101058.47;;;15.78;100.00
77626;BME280;66794;43.764;10.436;2023-04-25T01:07:35;101055.28;;;15.40;100.00
77626;BME280;66794;43.764;10.436;2023-04-25T01:10:21;101054.41;;;15.33;100.00
77626;BME280;66794;43.764;10.436;2023-04-25T01:13:07;101044.16;;;15.07;100.00
77626;BME280;66794;43.764;10.436;2023-04-25T01:15:53;101055.44;;;15.04;100.00
77626;BME280;66794;43.764;10.436;2023-04-25T01:18:39;101046.44;;;15.04;100.00
77626;BME280;66794;43.764;10.436;2023-04-25T01:21:25;101050.09;;;14.89;100.00
77626;BME280;66794;43.764;10.436;2023-04-25T01:24:13;101055.03;;;15.01;100.00
77626;BME280;66794;43.764;10.436;2023-04-25T01:26:59;101044.75;;;14.75;100.00
77626;BME280;66794;43.764;10.436;2023-04-25T01:29:46;101045.44;;;14.83;100.00
77626;BME280;66794;43.764;10.436;2023-04-25T01:32:31;101034.25;;;14.78;100.00
77626;BME280;66794;43.764;10.436;2023-04-25T01:35:23;101037.38;;;14.96;100.00
77626;BME280;66794;43.764;10.436;2023-04-25T01:38:09;101039.75;;;15.06;100.00
77626;BME280;66794;43.764;10.436;2023-04-25T01:40:55;101038.59;;;14.94;100.00
77626;BME280;66794;43.764;10.436;2023-04-25T01:43:41;101031.41;;;14.86;100.00
77626;BME280;66794;43.764;10.436;2023-04-25T01:46:27;101028.69;;;14.86;100.00
77626;BME280;66794;43.764;10.436;2023-04-25T01:49:12;101028.44;;;14.81;100.00
77626;BME280;66794;43.764;10.436;2023-04-25T01:51:58;101024.53;;;14.90;100.00
77626;BME280;66794;43.764;10.436;2023-04-25T01:54:44;101031.00;;;14.89;100.00
77626;BME280;66794;43.764;10.436;2023-04-25T01:57:30;101023.47;;;15.19;100.00
77626;BME280;66794;43.764;10.436;2023-04-25T02:00:15;101026.69;;;15.30;100.00
77626;BME280;66794;43.764;10.436;2023-04-25T02:03:01;101022.09;;;15.37;100.00
77626;BME280;66794;43.764;10.436;2023-04-25T02:05:47;101012.09;;;15.16;100.00
77626;BME280;66794;43.764;10.436;2023-04-25T02:08:32;101031.34;;;15.36;100.00
77626;BME280;66794;43.764;10.436;2023-04-25T02:11:18;101028.16;;;15.32;100.00
77626;BME280;66794;43.764;10.436;2023-04-25T02:14:04;101031.03;;;15.17;100.00
77626;BME280;66794;43.764;10.436;2023-04-25T02:16:50;101035.44;;;15.18;100.00
77626;BME280;66794;43.764;10.436;2023-04-25T02:19:36;101035.22;;;15.20;100.00
77626;BME280;66794;43.764;10.436;2023-04-25T02:22:22;101019.44;;;15.15;100.00
77626;BME280;66794;43.764;10.436;2023-04-25T02:25:08;101013.94;;;15.09;100.00
77626;BME280;66794;43.764;10.436;2023-04-25T02:27:54;101020.44;;;15.08;100.00
77626;BME280;66794;43.764;10.436;2023-04-25T02:30:40;101023.19;;;15.08;100.00
77626;BME280;66794;43.764;10.436;2023-04-25T02:33:25;101021.03;;;15.03;100.00
77626;BME280;66794;43.764;10.436;2023-04-25T02:36:11;101012.69;;;15.11;100.00
77626;BME280;66794;43.764;10.436;2023-04-25T02:38:56;101021.59;;;15.26;100.00
77626;BME280;66794;43.764;10.436;2023-04-25T02:41:42;101016.53;;;15.17;100.00
77626;BME280;66794;43.764;10.436;2023-04-25T02:44:28;101010.69;;;15.26;100.00
77626;BME280;66794;43.764;10.436;2023-04-25T02:47:13;101014.44;;;15.19;100.00
77626;BME280;66794;43.764;10.436;2023-04-25T02:49:59;101016.84;;;15.35;100.00
77626;BME280;66794;43.764;10.436;2023-04-25T02:52:44;101004.91;;;15.43;100.00
77626;BME280;66794;43.764;10.436;2023-04-25T02:55:31;101005.69;;;15.30;100.00
77626;BME280;66794;43.764;10.436;2023-04-25T02:58:16;101002.59;;;15.40;100.00
77626;BME280;66794;43.764;10.436;2023-04-25T03:01:02;100997.53;;;15.37;100.00
77626;BME280;66794;43.764;10.436;2023-04-25T03:03:48;100988.53;;;15.43;100.00
77626;BME280;66794;43.764;10.436;2023-04-25T03:06:33;100990.00;;;15.39;100.00
77626;BME280;66794;43.764;10.436;2023-04-25T03:09:19;100981.84;;;15.45;100.00
77626;BME280;66794;43.764;10.436;2023-04-25T03:12:04;100974.88;;;15.43;100.00
77626;BME280;66794;43.764;10.436;2023-04-25T03:14:50;100984.09;;;15.35;100.00
77626;BME280;66794;43.764;10.436;2023-04-25T03:17:36;100983.06;;;15.43;100.00
77626;BME280;66794;43.764;10.436;2023-04-25T03:20:21;100971.16;;;15.50;100.00
77626;BME280;66794;43.764;10.436;2023-04-25T03:23:07;100973.06;;;15.50;100.00
77626;BME280;66794;43.764;10.436;2023-04-25T03:25:53;100970.97;;;15.52;100.00
77626;BME280;66794;43.764;10.436;2023-04-25T03:28:38;100964.81;;;15.43;100.00
77626;BME280;66794;43.764;10.436;2023-04-25T03:31:25;100969.84;;;15.33;100.00
77626;BME280;66794;43.764;10.436;2023-04-25T03:34:11;100965.22;;;15.34;100.00
77626;BME280;66794;43.764;10.436;2023-04-25T03:36:56;100957.41;;;15.31;100.00
77626;BME280;66794;43.764;10.436;2023-04-25T03:39:42;100956.38;;;15.38;100.00
77626;BME280;66794;43.764;10.436;2023-04-25T03:42:28;100950.16;;;15.44;100.00
77626;BME280;66794;43.764;10.436;2023-04-25T03:45:13;100955.59;;;15.44;100.00
77626;BME280;66794;43.764;10.436;2023-04-25T03:47:59;100958.25;;;15.31;100.00
77626;BME280;66794;43.764;10.436;2023-04-25T03:50:44;100959.69;;;15.27;100.00
77626;BME280;66794;43.764;10.436;2023-04-25T03:53:30;100959.00;;;15.12;100.00
77626;BME280;66794;43.764;10.436;2023-04-25T03:56:15;100953.25;;;15.00;100.00
77626;BME280;66794;43.764;10.436;2023-04-25T03:59:01;100952.81;;;14.96;100.00
77626;BME280;66794;43.764;10.436;2023-04-25T04:01:47;100943.13;;;14.87;100.00
77626;BME280;66794;43.764;10.436;2023-04-25T04:04:32;100944.16;;;14.86;100.00
77626;BME280;66794;43.764;10.436;2023-04-25T04:07:18;100941.19;;;14.81;100.00
77626;BME280;66794;43.764;10.436;2023-04-25T04:10:04;100940.47;;;14.72;100.00
77626;BME280;66794;43.764;10.436;2023-04-25T04:12:50;100941.69;;;14.63;100.00
77626;BME280;66794;43.764;10.436;2023-04-25T04:15:36;100941.94;;;14.68;100.00
77626;BME280;66794;43.764;10.436;2023-04-25T04:18:21;100942.31;;;14.65;100.00
77626;BME280;66794;43.764;10.436;2023-04-25T04:21:07;100932.31;;;14.72;100.00
77626;BME280;66794;43.764;10.436;2023-04-25T04:23:53;100928.94;;;14.70;100.00
77626;BME280;66794;43.764;10.436;2023-04-25T04:26:39;100930.38;;;14.66;100.00
77626;BME280;66794;43.764;10.436;2023-04-25T04:29:25;100930.59;;;14.65;100.00
77626;BME280;66794;43.764;10.436;2023-04-25T04:32:11;100930.19;;;14.68;100.00
77626;BME280;66794;43.764;10.436;2023-04-25T04:34:57;100938.13;;;14.63;100.00
77626;BME280;66794;43.764;10.436;2023-04-25T04:37:43;100930.97;;;14.62;100.00
77626;BME280;66794;43.764;10.436;2023-04-25T04:40:30;100931.63;;;14.64;100.00
77626;BME280;66794;43.764;10.436;2023-04-25T04:43:17;100933.69;;;14.62;100.00
77626;BME280;66794;43.764;10.436;2023-04-25T04:46:04;100935.16;;;14.58;100.00
77626;BME280;66794;43.764;10.436;2023-04-25T04:48:49;100927.34;;;14.55;100.00
77626;BME280;66794;43.764;10.436;2023-04-25T04:51:35;100923.34;;;14.51;100.00
77626;BME280;66794;43.764;10.436;2023-04-25T04:54:21;100938.00;;;14.50;100.00
77626;BME280;66794;43.764;10.436;2023-04-25T04:57:07;100923.69;;;14.41;100.00
77626;BME280;66794;43.764;10.436;2023-04-25T04:59:53;100924.84;;;14.53;100.00
77626;BME280;66794;43.764;10.436;2023-04-25T05:02:38;100930.22;;;14.46;100.00
77626;BME280;66794;43.764;10.436;2023-04-25T05:05:24;100935.94;;;14.52;100.00
77626;BME280;66794;43.764;10.436;2023-04-25T05:08:10;100932.47;;;14.64;100.00
77626;BME280;66794;43.764;10.436;2023-04-25T05:10:55;100933.56;;;14.70;100.00
77626;BME280;66794;43.764;10.436;2023-04-25T05:13:41;100930.03;;;14.76;100.00
77626;BME280;66794;43.764;10.436;2023-04-25T05:16:27;100934.41;;;14.70;100.00
77626;BME280;66794;43.764;10.436;2023-04-25T05:19:16;100936.28;;;14.70;100.00
77626;BME280;66794;43.764;10.436;2023-04-25T05:22:02;100945.22;;;14.85;100.00
77626;BME280;66794;43.764;10.436;2023-04-25T05:24:47;100949.13;;;15.11;100.00
77626;BME280;66794;43.764;10.436;2023-04-25T05:27:33;100951.09;;;15.23;100.00
77626;BME280;66794;43.764;10.436;2023-04-25T05:30:19;100955.75;;;15.30;100.00
77626;BME280;66794;43.764;10.436;2023-04-25T05:33:06;100952.19;;;15.36;100.00
77626;BME280;66794;43.764;10.436;2023-04-25T05:35:52;100948.22;;;15.38;100.00
77626;BME280;66794;43.764;10.436;2023-04-25T05:38:37;100950.53;;;15.41;100.00
77626;BME280;66794;43.764;10.436;2023-04-25T05:41:23;100958.97;;;15.46;100.00
77626;BME280;66794;43.764;10.436;2023-04-25T05:44:09;100951.41;;;15.48;100.00
77626;BME280;66794;43.764;10.436;2023-04-25T05:46:55;100955.84;;;15.49;100.00
77626;BME280;66794;43.764;10.436;2023-04-25T05:49:40;100957.53;;;15.50;100.00
77626;BME280;66794;43.764;10.436;2023-04-25T05:52:26;100959.19;;;15.51;100.00
77626;BME280;66794;43.764;10.436;2023-04-25T05:55:12;100950.59;;;15.55;100.00
77626;BME280;66794;43.764;10.436;2023-04-25T05:57:57;100951.03;;;15.58;100.00
77626;BME280;66794;43.764;10.436;2023-04-25T06:00:43;100947.84;;;15.55;100.00
77626;BME280;66794;43.764;10.436;2023-04-25T06:03:28;100955.22;;;15.54;100.00
77626;BME280;66794;43.764;10.436;2023-04-25T06:06:15;100915.25;;;15.33;100.00
77626;BME280;66794;43.764;10.436;2023-04-25T06:09:01;100952.09;;;15.57;100.00
77626;BME280;66794;43.764;10.436;2023-04-25T06:11:46;100960.72;;;15.61;100.00
77626;BME280;66794;43.764;10.436;2023-04-25T06:14:32;100958.25;;;15.66;100.00
77626;BME280;66794;43.764;10.436;2023-04-25T06:17:18;100952.59;;;15.74;100.00
77626;BME280;66794;43.764;10.436;2023-04-25T06:20:04;100952.19;;;15.77;100.00
77626;BME280;66794;43.764;10.436;2023-04-25T06:22:50;100945.91;;;15.83;100.00
77626;BME280;66794;43.764;10.436;2023-04-25T06:25:36;100952.00;;;15.85;100.00
77626;BME280;66794;43.764;10.436;2023-04-25T06:28:22;100937.72;;;15.90;100.00
77626;BME280;66794;43.764;10.436;2023-04-25T06:31:09;100949.31;;;15.98;100.00
77626;BME280;66794;43.764;10.436;2023-04-25T06:33:55;100943.81;;;15.92;100.00
77626;BME280;66794;43.764;10.436;2023-04-25T06:36:40;100940.25;;;15.91;100.00
77626;BME280;66794;43.764;10.436;2023-04-25T06:39:26;100943.63;;;15.93;100.00
77626;BME280;66794;43.764;10.436;2023-04-25T06:42:12;100947.59;;;15.97;100.00
77626;BME280;66794;43.764;10.436;2023-04-25T06:44:58;100941.75;;;16.00;100.00
77626;BME280;66794;43.764;10.436;2023-04-25T06:47:43;100932.31;;;16.10;100.00
77626;BME280;66794;43.764;10.436;2023-04-25T06:50:29;100927.69;;;16.17;100.00
77626;BME280;66794;43.764;10.436;2023-04-25T06:53:15;100935.66;;;16.12;100.00
77626;BME280;66794;43.764;10.436;2023-04-25T06:56:00;100939.00;;;16.07;100.00
77626;BME280;66794;43.764;10.436;2023-04-25T06:58:46;100944.28;;;16.15;100.00
77626;BME280;66794;43.764;10.436;2023-04-25T07:01:32;100940.91;;;16.20;100.00
77626;BME280;66794;43.764;10.436;2023-04-25T07:04:17;100937.97;;;16.41;100.00
77626;BME280;66794;43.764;10.436;2023-04-25T07:07:03;100948.09;;;16.47;100.00
77626;BME280;66794;43.764;10.436;2023-04-25T07:09:49;100945.97;;;16.36;100.00
77626;BME280;66794;43.764;10.436;2023-04-25T07:12:35;100940.72;;;16.35;100.00
77626;BME280;66794;43.764;10.436;2023-04-25T07:15:21;100931.28;;;16.37;100.00
77626;BME280;66794;43.764;10.436;2023-04-25T07:18:06;100938.41;;;16.32;100.00
77626;BME280;66794;43.764;10.436;2023-04-25T07:20:52;100935.03;;;16.36;100.00
77626;BME280;66794;43.764;10.436;2023-04-25T07:23:37;100935.69;;;16.32;100.00
77626;BME280;66794;43.764;10.436;2023-04-25T07:26:26;100946.81;;;16.43;100.00
77626;BME280;66794;43.764;10.436;2023-04-25T07:29:11;100937.38;;;16.33;100.00
77626;BME280;66794;43.764;10.436;2023-04-25T07:31:57;100928.28;;;16.25;100.00
77626;BME280;66794;43.764;10.436;2023-04-25T07:34:42;100939.03;;;16.20;100.00
77626;BME280;66794;43.764;10.436;2023-04-25T07:37:28;100931.25;;;16.17;100.00
77626;BME280;66794;43.764;10.436;2023-04-25T07:40:14;100934.22;;;16.49;100.00
77626;BME280;66794;43.764;10.436;2023-04-25T07:43:02;100937.56;;;16.38;100.00
77626;BME280;66794;43.764;10.436;2023-04-25T07:45:48;100935.25;;;16.41;100.00
77626;BME280;66794;43.764;10.436;2023-04-25T07:48:34;100930.00;;;16.33;100.00
77626;BME280;66794;43.764;10.436;2023-04-25T07:51:19;100939.88;;;16.41;100.00
77626;BME280;66794;43.764;10.436;2023-04-25T07:54:07;100930.84;;;16.27;100.00
77626;BME280;66794;43.764;10.436;2023-04-25T07:56:53;100935.03;;;16.36;100.00
77626;BME280;66794;43.764;10.436;2023-04-25T07:59:39;100938.41;;;16.51;100.00
77626;BME280;66794;43.764;10.436;2023-04-25T08:02:25;100930.84;;;16.73;100.00
77626;BME280;66794;43.764;10.436;2023-04-25T08:05:13;100932.72;;;16.66;100.00
77626;BME280;66794;43.764;10.436;2023-04-25T08:08:00;100937.13;;;16.67;100.00
77626;BME280;66794;43.764;10.436;2023-04-25T08:10:47;100937.78;;;16.69;100.00
77626;BME280;66794;43.764;10.436;2023-04-25T08:13:33;100934.16;;;16.95;100.00
77626;BME280;66794;43.764;10.436;2023-04-25T08:16:19;100930.50;;;17.28;100.00
77626;BME280;66794;43.764;10.436;2023-04-25T08:19:05;100930.81;;;16.93;100.00
77626;BME280;66794;43.764;10.436;2023-04-25T08:21:51;100935.00;;;16.96;100.00
77626;BME280;66794;43.764;10.436;2023-04-25T08:24:37;100941.91;;;17.12;100.00
77626;BME280;66794;43.764;10.436;2023-04-25T08:27:22;100938.97;;;17.06;100.00
77626;BME280;66794;43.764;10.436;2023-04-25T08:30:09;100941.06;;;17.24;100.00
77626;BME280;66794;43.764;10.436;2023-04-25T08:32:54;100943.19;;;17.09;100.00
77626;BME280;66794;43.764;10.436;2023-04-25T08:35:40;100946.50;;;17.31;100.00
77626;BME280;66794;43.764;10.436;2023-04-25T08:38:26;100946.03;;;17.47;100.00
77626;BME280;66794;43.764;10.436;2023-04-25T08:41:11;100945.44;;;18.15;100.00
77626;BME280;66794;43.764;10.436;2023-04-25T08:43:57;100943.72;;;18.21;100.00
77626;BME280;66794;43.764;10.436;2023-04-25T08:46:45;100945.75;;;18.32;100.00
77626;BME280;66794;43.764;10.436;2023-04-25T08:49:34;100951.41;;;18.12;100.00
77626;BME280;66794;43.764;10.436;2023-04-25T08:52:23;100957.13;;;17.59;100.00
77626;BME280;66794;43.764;10.436;2023-04-25T08:55:12;100959.41;;;17.75;100.00
77626;BME280;66794;43.764;10.436;2023-04-25T08:57:58;100957.97;;;17.73;100.00
77626;BME280;66794;43.764;10.436;2023-04-25T09:00:46;100950.88;;;17.39;100.00
77626;BME280;66794;43.764;10.436;2023-04-25T09:03:31;100949.88;;;17.84;100.00
77626;BME280;66794;43.764;10.436;2023-04-25T09:06:17;100955.25;;;17.53;100.00
77626;BME280;66794;43.764;10.436;2023-04-25T09:09:03;100949.94;;;17.65;100.00
77626;BME280;66794;43.764;10.436;2023-04-25T09:11:50;100955.28;;;17.98;100.00
77626;BME280;66794;43.764;10.436;2023-04-25T09:14:36;100953.16;;;18.00;100.00
77626;BME280;66794;43.764;10.436;2023-04-25T09:17:21;100956.16;;;17.92;100.00
77626;BME280;66794;43.764;10.436;2023-04-25T09:20:08;100959.06;;;17.97;100.00
77626;BME280;66794;43.764;10.436;2023-04-25T09:23:04;100951.63;;;18.35;100.00
77626;BME280;66794;43.764;10.436;2023-04-25T09:25:52;100966.97;;;17.67;100.00
77626;BME280;66794;43.764;10.436;2023-04-25T09:28:38;100967.41;;;17.77;100.00
77626;BME280;66794;43.764;10.436;2023-04-25T09:31:24;100975.22;;;17.60;100.00
77626;BME280;66794;43.764;10.436;2023-04-25T09:34:09;100958.75;;;17.80;100.00
77626;BME280;66794;43.764;10.436;2023-04-25T09:37:01;100966.78;;;18.13;100.00
77626;BME280;66794;43.764;10.436;2023-04-25T09:39:48;100961.22;;;18.51;100.00
77626;BME280;66794;43.764;10.436;2023-04-25T09:42:34;100958.28;;;17.90;100.00
77626;BME280;66794;43.764;10.436;2023-04-25T09:45:20;100961.19;;;17.95;100.00
77626;BME280;66794;43.764;10.436;2023-04-25T09:48:06;100963.56;;;17.84;100.00
77626;BME280;66794;43.764;10.436;2023-04-25T09:53:50;100947.16;;;18.41;100.00
77626;BME280;66794;43.764;10.436;2023-04-25T09:56:36;100948.91;;;18.60;100.00
77626;BME280;66794;43.764;10.436;2023-04-25T09:59:24;100954.03;;;18.82;100.00
77626;BME280;66794;43.764;10.436;2023-04-25T10:02:10;100956.25;;;18.66;100.00
77626;BME280;66794;43.764;10.436;2023-04-25T10:04:56;100959.13;;;18.97;100.00
77626;BME280;66794;43.764;10.436;2023-04-25T10:07:42;100960.69;;;19.11;100.00
77626;BME280;66794;43.764;10.436;2023-04-25T10:10:28;100954.66;;;19.76;100.00
77626;BME280;66794;43.764;10.436;2023-04-25T10:13:15;100962.41;;;18.87;100.00
77626;BME280;66794;43.764;10.436;2023-04-25T10:16:01;100956.88;;;18.12;100.00
77626;BME280;66794;43.764;10.436;2023-04-25T10:18:47;100945.63;;;18.77;100.00
77626;BME280;66794;43.764;10.436;2023-04-25T10:21:33;100945.53;;;19.08;100.00
77626;BME280;66794;43.764;10.436;2023-04-25T10:24:20;100951.59;;;18.92;100.00
77626;BME280;66794;43.764;10.436;2023-04-25T10:27:06;100949.41;;;18.51;100.00
77626;BME280;66794;43.764;10.436;2023-04-25T10:30:08;100948.84;;;17.79;100.00
77626;BME280;66794;43.764;10.436;2023-04-25T10:32:56;100951.16;;;18.13;100.00
77626;BME280;66794;43.764;10.436;2023-04-25T10:35:43;100941.13;;;18.01;100.00
77626;BME280;66794;43.764;10.436;2023-04-25T10:38:30;100933.56;;;18.28;100.00
77626;BME280;66794;43.764;10.436;2023-04-25T10:41:19;100931.03;;;18.26;100.00
77626;BME280;66794;43.764;10.436;2023-04-25T10:44:05;100926.25;;;18.22;100.00
77626;BME280;66794;43.764;10.436;2023-04-25T10:46:51;100927.50;;;19.12;100.00
77626;BME280;66794;43.764;10.436;2023-04-25T10:49:42;100919.09;;;19.62;100.00
77626;BME280;66794;43.764;10.436;2023-04-25T10:52:28;100920.28;;;20.38;100.00
77626;BME280;66794;43.764;10.436;2023-04-25T10:55:15;100914.06;;;20.31;100.00
77626;BME280;66794;43.764;10.436;2023-04-25T10:58:00;100919.03;;;19.69;100.00
77626;BME280;66794;43.764;10.436;2023-04-25T11:00:46;100916.00;;;19.04;100.00
77626;BME280;66794;43.764;10.436;2023-04-25T11:03:32;100919.13;;;18.89;100.00
77626;BME280;66794;43.764;10.436;2023-04-25T11:06:22;100922.59;;;18.53;100.00
77626;BME280;66794;43.764;10.436;2023-04-25T11:09:10;100918.09;;;18.58;100.00
77626;BME280;66794;43.764;10.436;2023-04-25T11:11:58;100921.53;;;18.54;100.00
77626;BME280;66794;43.764;10.436;2023-04-25T11:14:45;100912.38;;;17.85;100.00
77626;BME280;66794;43.764;10.436;2023-04-25T11:17:31;100910.06;;;18.38;100.00
77626;BME280;66794;43.764;10.436;2023-04-25T11:20:16;100915.38;;;18.33;100.00
77626;BME280;66794;43.764;10.436;2023-04-25T11:23:02;100914.19;;;18.98;100.00
77626;BME280;66794;43.764;10.436;2023-04-25T11:25:48;100906.03;;;19.76;100.00
77626;BME280;66794;43.764;10.436;2023-04-25T11:28:34;100916.22;;;19.02;100.00
77626;BME280;66794;43.764;10.436;2023-04-25T11:31:20;100915.59;;;18.32;100.00
77626;BME280;66794;43.764;10.436;2023-04-25T11:34:06;100910.28;;;18.12;100.00
77626;BME280;66794;43.764;10.436;2023-04-25T11:36:52;100912.13;;;18.93;100.00
77626;BME280;66794;43.764;10.436;2023-04-25T11:39:39;100906.53;;;18.31;100.00
77626;BME280;66794;43.764;10.436;2023-04-25T11:42:27;100911.44;;;18.48;100.00
77626;BME280;66794;43.764;10.436;2023-04-25T11:45:13;100910.56;;;18.79;100.00
77626;BME280;66794;43.764;10.436;2023-04-25T11:48:01;100898.81;;;17.52;100.00
77626;BME280;66794;43.764;10.436;2023-04-25T11:50:47;100896.94;;;18.90;100.00
77626;BME280;66794;43.764;10.436;2023-04-25T11:53:33;100898.75;;;19.33;100.00
77626;BME280;66794;43.764;10.436;2023-04-25T11:56:19;100900.50;;;19.64;100.00
77626;BME280;66794;43.764;10.436;2023-04-25T11:59:05;100898.22;;;19.91;100.00
77626;BME280;66794;43.764;10.436;2023-04-25T12:01:51;100905.41;;;20.58;100.00
77626;BME280;66794;43.764;10.436;2023-04-25T12:04:37;100905.22;;;20.29;100.00
77626;BME280;66794;43.764;10.436;2023-04-25T12:07:27;100900.56;;;19.88;99.78
77626;BME280;66794;43.764;10.436;2023-04-25T12:10:15;100913.25;;;19.22;100.00
77626;BME280;66794;43.764;10.436;2023-04-25T12:13:17;100910.41;;;18.24;100.00
77626;BME280;66794;43.764;10.436;2023-04-25T12:16:02;100904.78;;;18.62;100.00
77626;BME280;66794;43.764;10.436;2023-04-25T12:18:51;100914.16;;;18.29;100.00
77626;BME280;66794;43.764;10.436;2023-04-25T12:21:37;100918.44;;;19.12;100.00
77626;BME280;66794;43.764;10.436;2023-04-25T12:24:23;100917.13;;;18.78;100.00
77626;BME280;66794;43.764;10.436;2023-04-25T12:27:10;100923.31;;;18.66;100.00
77626;BME280;66794;43.764;10.436;2023-04-25T12:30:01;100914.63;;;19.13;100.00
77626;BME280;66794;43.764;10.436;2023-04-25T12:32:47;100922.00;;;19.49;100.00
77626;BME280;66794;43.764;10.436;2023-04-25T12:35:33;100919.16;;;19.56;100.00
77626;BME280;66794;43.764;10.436;2023-04-25T12:38:22;100915.06;;;19.95;100.00
77626;BME280;66794;43.764;10.436;2023-04-25T12:41:08;100921.88;;;18.89;100.00
77626;BME280;66794;43.764;10.436;2023-04-25T12:43:53;100916.16;;;19.64;100.00
77626;BME280;66794;43.764;10.436;2023-04-25T12:46:39;100918.75;;;19.22;100.00
77626;BME280;66794;43.764;10.436;2023-04-25T12:49:25;100921.25;;;19.05;100.00
77626;BME280;66794;43.764;10.436;2023-04-25T12:52:11;100920.31;;;18.50;100.00
77626;BME280;66794;43.764;10.436;2023-04-25T12:54:57;100929.56;;;18.99;100.00
77626;BME280;66794;43.764;10.436;2023-04-25T12:57:42;100940.94;;;19.39;100.00
77626;BME280;66794;43.764;10.436;2023-04-25T13:00:28;100935.88;;;18.56;100.00
77626;BME280;66794;43.764;10.436;2023-04-25T13:03:14;100935.75;;;18.94;100.00
77626;BME280;66794;43.764;10.436;2023-04-25T13:06:00;100943.41;;;18.35;100.00
77626;BME280;66794;43.764;10.436;2023-04-25T13:08:45;100937.03;;;18.91;100.00
77626;BME280;66794;43.764;10.436;2023-04-25T13:11:31;100937.06;;;19.10;100.00
77626;BME280;66794;43.764;10.436;2023-04-25T13:14:17;100943.13;;;18.19;100.00
77626;BME280;66794;43.764;10.436;2023-04-25T13:17:02;100947.69;;;17.93;100.00
77626;BME280;66794;43.764;10.436;2023-04-25T13:19:48;100941.22;;;18.76;100.00
77626;BME280;66794;43.764;10.436;2023-04-25T13:22:34;100944.78;;;19.20;100.00
77626;BME280;66794;43.764;10.436;2023-04-25T13:25:22;100938.56;;;19.61;100.00
77626;BME280;66794;43.764;10.436;2023-04-25T13:28:07;100950.78;;;19.95;98.22
77626;BME280;66794;43.764;10.436;2023-04-25T13:30:53;100949.81;;;20.73;94.25
77626;BME280;66794;43.764;10.436;2023-04-25T13:33:39;100950.22;;;19.56;95.63
77626;BME280;66794;43.764;10.436;2023-04-25T13:36:25;100955.31;;;18.79;100.00
77626;BME280;66794;43.764;10.436;2023-04-25T13:39:11;100955.78;;;18.45;100.00
77626;BME280;66794;43.764;10.436;2023-04-25T13:41:57;100947.81;;;18.68;100.00
77626;BME280;66794;43.764;10.436;2023-04-25T13:44:43;100951.09;;;19.20;100.00
77626;BME280;66794;43.764;10.436;2023-04-25T13:47:28;100950.22;;;18.83;98.25
77626;BME280;66794;43.764;10.436;2023-04-25T13:50:14;100945.72;;;18.88;99.86
77626;BME280;66794;43.764;10.436;2023-04-25T13:53:01;100952.66;;;19.46;99.26
77626;BME280;66794;43.764;10.436;2023-04-25T13:55:46;100953.91;;;19.68;94.87
77626;BME280;66794;43.764;10.436;2023-04-25T13:58:32;100950.06;;;19.51;94.63
77626;BME280;66794;43.764;10.436;2023-04-25T14:01:18;100949.81;;;20.31;95.70
77626;BME280;66794;43.764;10.436;2023-04-25T14:04:05;100948.81;;;19.84;93.00
77626;BME280;66794;43.764;10.436;2023-04-25T14:06:50;100940.72;;;20.72;91.61
77626;BME280;66794;43.764;10.436;2023-04-25T14:09:36;100941.16;;;20.69;89.50